Detailed System and Site Information

System Data Health
Measure Timestamp Ago Health
Web Server Live 04:58:24, 1st October 2014 0 s health
Last live-data upload from local system (nw3) 04:58:19, 1st October 2014 5 s health
Last upload of secondary data 23:00:25, 30th September 2014 6 hours health
Latest Webcam upload 04:58:08, 1st October 2014 16 s health
Last upload of 24hr data log 04:54:07, 1st October 2014 4 mins health
Last full data process 04:55:01, 1st October 2014 3 mins health
Last data downtime (>15 mins) 22:16:01, 9th September 2014 21 days
Local System and Site Information
Measure Value
WD Version & Build # 10.37R - 40
WD Start Time 22:15 09/09/14
WD Data Count 633376
WD Memory Use 56,776 K
--- ---
Windows Uptime 21 Days 0 Hours 45 Minutes 33 Seconds
Free System Memory 2519 MB (Max: 4GB)
--- ---
Station Altitude 57 m (187 ft)
Station Latitude 51.556
Station Longitude -0.154
Machine Room Conditions
Measure Value
Temperature 22.1 °C
Temperature Trend +0.3 °C /hr
Relative Humidity 56%
Dew Point 12.9 °C
--- ---
Tmin Today 21.6 °C at 07:20
Tmax Today 22.4 °C at 00:06
Hmin Today 53% at 18:10
Hmax Today 60% at 08:07
Tmin Yesterday 21.6 °C at 18:33
Tmax Yesterday 23.0 °C at 00:00

Site owner and administrator: Ben Lee-Rodgers (2010 - present)

Last 10hrs Temp/Hum for Secondary Sensor and Indoors

Extra Sensors/Indoor

Other

Raw METAR from EGLL (Heathrow)

EGLL 010350Z 19006KT 9999 SCT017 BKN040 16/15 Q1023
Decode Instructions
Source

WD Screenshot

not available